Time;durP1;ratioP1;P1;durP2;ratioP2;P2;SDS_P1;SDS_P2;PMS_P1;PMS_P2;Temp;Humidity;BMP_temperature;BMP_pressure;BME280_temperature;BME280_humidity;BME280_pressure;Samples;Min_cycle;Max_cycle;Signal;HPM_P1;HPM_P2
2023/03/27 10:24:35;;;;;;;19.13;5.85;;;19.00;79.80;;;;;;5098044;27;20446;-67
2023/03/27 10:27:08;;;;;;;24.77;6.28;;;19.00;80.40;;;;;;5097895;28;20040;-65
2023/03/27 10:29:35;;;;;;;17.63;5.25;;;19.00;80.40;;;;;;5096625;28;20082;-68
2023/03/27 10:32:03;;;;;;;16.90;4.90;;;19.00;80.40;;;;;;5101471;28;20058;-67
2023/03/27 10:34:50;;;;;;;17.77;5.32;;;19.00;80.40;;;;;;5101528;28;20380;-67
2023/03/27 10:37:29;;;;;;;13.32;4.13;;;19.00;80.40;;;;;;5100758;28;20599;-66
2023/03/27 10:39:59;;;;;;;13.95;4.10;;;19.00;80.40;;;;;;5082109;28;20537;-65
2023/03/27 10:42:30;;;;;;;13.70;4.15;;;19.10;80.50;;;;;;5100657;28;20402;-66
2023/03/27 10:44:56;;;;;;;13.85;4.63;;;19.10;80.50;;;;;;5099900;28;20040;-67
2023/03/27 10:47:25;;;;;;;12.65;3.72;;;19.10;80.50;;;;;;5100068;28;20047;-66
2023/03/27 10:49:56;;;;;;;12.43;3.92;;;19.10;80.60;;;;;;5098756;28;20048;-64
2023/03/27 10:52:29;;;;;;;10.38;3.13;;;19.00;80.60;;;;;;5111020;28;20495;-65
2023/03/27 10:54:55;;;;;;;10.70;3.55;;;19.00;80.60;;;;;;5097924;28;20067;-67
2023/03/27 10:57:34;;;;;;;11.60;3.28;;;19.00;80.60;;;;;;5078574;28;20052;-67
2023/03/27 11:00:17;;;;;;;13.55;3.97;;;19.00;80.60;;;;;;5096740;28;20415;-67
2023/03/27 11:03:19;;;;;;;11.60;3.10;;;19.00;80.70;;;;;;5096785;28;20059;-67
2023/03/27 11:05:47;;;;;;;7.60;2.60;;;19.10;80.80;;;;;;5097033;28;20394;-67
2023/03/27 11:08:43;;;;;;;8.10;2.72;;;19.10;80.90;;;;;;5096935;28;20425;-67
2023/03/27 11:11:21;;;;;;;8.43;3.00;;;19.00;80.90;;;;;;5096504;28;20432;-68
2023/03/27 11:13:48;;;;;;;9.10;2.72;;;19.00;80.90;;;;;;5096764;28;20070;-68
2023/03/27 11:16:26;;;;;;;7.50;2.50;;;19.00;80.90;;;;;;5097096;28;20441;-68
2023/03/27 11:19:09;;;;;;;6.57;2.30;;;19.00;81.00;;;;;;5096751;28;20054;-68
2023/03/27 11:21:46;;;;;;;7.35;2.15;;;19.10;81.00;;;;;;5078590;28;20044;-68
2023/03/27 11:24:29;;;;;;;7.90;2.63;;;19.10;81.00;;;;;;5097101;28;20048;-68
2023/03/27 11:27:11;;;;;;;9.40;3.00;;;19.10;80.90;;;;;;5078642;28;20040;-68
2023/03/27 11:29:47;;;;;;;7.45;2.20;;;19.10;81.00;;;;;;5071328;28;20350;-68
2023/03/27 11:32:21;;;;;;;6.10;2.15;;;19.10;81.00;;;;;;5096162;28;20452;-69
2023/03/27 11:35:05;;;;;;;8.00;2.55;;;19.10;80.90;;;;;;5087382;28;20051;-69
2023/03/27 11:37:58;;;;;;;6.35;2.00;;;19.20;80.90;;;;;;5084842;28;20048;-68
2023/03/27 11:40:41;;;;;;;6.75;2.45;;;19.20;80.90;;;;;;5084853;28;20113;-68
2023/03/27 11:43:12;;;;;;;6.32;2.00;;;19.20;80.80;;;;;;5082369;28;20481;-68
2023/03/27 11:46:03;;;;;;;7.25;1.92;;;19.20;80.90;;;;;;5066979;28;20066;-68
2023/03/27 11:48:41;;;;;;;6.13;1.90;;;19.20;81.00;;;;;;5066199;28;20044;-68
2023/03/27 11:51:14;;;;;;;4.30;1.63;;;19.20;80.90;;;;;;5070124;28;20045;-68
2023/03/27 11:53:58;;;;;;;5.35;1.70;;;19.20;81.00;;;;;;5084977;28;20040;-68
2023/03/27 11:56:54;;;;;;;5.50;2.13;;;19.20;81.00;;;;;;5067141;28;20066;-67
2023/03/27 11:59:52;;;;;;;5.43;1.80;;;19.20;81.00;;;;;;5063809;28;20045;-68
2023/03/27 12:02:44;;;;;;;3.60;1.42;;;19.20;81.00;;;;;;5052962;28;20047;-68
2023/03/27 12:05:26;;;;;;;4.22;1.55;;;19.30;81.10;;;;;;5085152;28;20047;-67
2023/03/27 12:08:10;;;;;;;5.60;1.83;;;19.30;81.10;;;;;;5084878;28;20080;-68
2023/03/27 12:10:41;;;;;;;3.38;1.23;;;19.20;81.00;;;;;;5085595;28;20032;-67
2023/03/27 12:13:34;;;;;;;3.65;1.30;;;19.30;81.20;;;;;;5084190;28;20414;-68
2023/03/27 12:16:18;;;;;;;6.50;1.58;;;19.30;81.10;;;;;;5067322;28;20674;-68
2023/03/27 12:19:20;;;;;;;4.35;1.35;;;19.30;81.20;;;;;;5084410;28;20168;-68
2023/03/27 12:22:05;;;;;;;4.78;1.42;;;19.30;81.20;;;;;;5082370;28;20036;-68
2023/03/27 12:25:03;;;;;;;3.92;1.30;;;19.30;81.10;;;;;;5067037;28;20048;-68
2023/03/27 12:27:54;;;;;;;4.68;1.48;;;19.30;81.20;;;;;;5067403;28;20056;-68
2023/03/27 12:30:47;;;;;;;3.58;1.00;;;19.30;81.20;;;;;;5065107;28;20078;-68
2023/03/27 12:33:28;;;;;;;3.67;1.23;;;19.30;81.20;;;;;;5084472;28;20047;-68
2023/03/27 12:35:57;;;;;;;4.35;1.20;;;19.30;81.20;;;;;;5084277;28;20072;-67
2023/03/27 12:38:45;;;;;;;3.67;1.30;;;19.30;81.20;;;;;;5084676;28;20597;-68
2023/03/27 12:41:20;;;;;;;5.28;1.27;;;19.30;81.20;;;;;;5084831;28;20048;-68
2023/03/27 12:43:52;;;;;;;2.70;0.90;;;19.30;81.20;;;;;;5083714;28;20087;-68
2023/03/27 12:46:25;;;;;;;4.55;1.40;;;19.30;81.20;;;;;;5064976;28;20055;-68
2023/03/27 12:48:59;;;;;;;3.60;1.10;;;19.30;81.30;;;;;;5084815;28;20131;-67
2023/03/27 12:51:50;;;;;;;3.08;0.90;;;19.30;81.30;;;;;;5084840;28;20059;-68
2023/03/27 12:54:25;;;;;;;5.63;1.55;;;19.30;81.20;;;;;;5067004;28;20375;-67
2023/03/27 12:57:16;;;;;;;3.63;1.13;;;19.30;81.20;;;;;;5083659;28;20785;-68
2023/03/27 12:59:52;;;;;;;2.42;0.90;;;19.40;81.20;;;;;;5083509;28;20071;-68
2023/03/27 13:02:26;;;;;;;4.70;1.05;;;19.40;81.30;;;;;;5065375;28;20040;-68
2023/03/27 13:05:11;;;;;;;4.60;1.17;;;19.40;81.20;;;;;;5084460;28;20119;-68
2023/03/27 13:07:44;;;;;;;;;;;19.40;81.20;;;;;;5083948;28;20048;-68
2023/03/27 13:10:25;;;;;;;3.10;0.90;;;19.40;81.20;;;;;;5084255;28;19967;-68
2023/03/27 13:13:10;;;;;;;3.28;1.10;;;19.50;81.20;;;;;;5083240;28;20048;-68
2023/03/27 13:15:54;;;;;;;3.78;0.93;;;19.40;81.10;;;;;;5066607;28;20543;-69
2023/03/27 13:18:32;;;;;;;4.03;0.90;;;19.50;81.20;;;;;;5082004;28;20069;-68
2023/03/27 13:21:24;;;;;;;1.98;0.80;;;19.50;81.10;;;;;;5079469;28;20056;-68
2023/03/27 13:24:28;;;;;;;3.38;0.85;;;19.40;81.20;;;;;;5035373;28;20056;-68
2023/03/27 13:26:59;;;;;;;3.83;1.27;;;19.40;81.20;;;;;;5081413;28;20068;-67
2023/03/27 13:29:30;;;;;;;2.25;0.77;;;19.50;81.20;;;;;;5082424;28;20100;-67
2023/03/27 13:32:34;;;;;;;3.65;1.08;;;19.50;81.20;;;;;;5064607;28;20039;-68
2023/03/27 13:35:19;;;;;;;2.25;0.80;;;19.50;81.30;;;;;;5083534;28;20044;-67
2023/03/27 13:37:52;;;;;;;3.00;0.70;;;19.50;81.40;;;;;;5083615;28;20048;-68
2023/03/27 13:40:25;;;;;;;3.22;0.70;;;19.50;81.30;;;;;;5083745;28;20070;-67
2023/03/27 13:43:01;;;;;;;2.80;1.05;;;19.50;81.20;;;;;;5063441;28;20080;-68
2023/03/27 13:45:46;;;;;;;3.40;0.80;;;19.60;81.30;;;;;;5083810;28;20448;-68
2023/03/27 13:48:34;;;;;;;2.00;0.57;;;19.50;81.40;;;;;;5082568;28;20044;-68
2023/03/27 13:51:11;;;;;;;1.77;0.70;;;19.50;81.40;;;;;;5065642;28;20072;-67
2023/03/27 13:53:40;;;;;;;1.98;0.60;;;19.60;81.40;;;;;;5065123;28;20082;-69
2023/03/27 13:56:31;;;;;;;1.80;0.60;;;19.60;81.40;;;;;;5083182;28;20047;-68
2023/03/27 13:59:05;;;;;;;2.88;1.08;;;19.60;81.40;;;;;;5063400;28;20058;-68
2023/03/27 14:01:43;;;;;;;;;;;19.60;81.40;;;;;;5064990;28;20036;-68
2023/03/27 14:04:32;;;;;;;2.33;0.80;;;19.60;81.30;;;;;;5082890;28;19946;-68
2023/03/27 14:07:10;;;;;;;2.45;0.88;;;19.60;81.30;;;;;;5083079;28;20066;-67
2023/03/27 14:09:51;;;;;;;3.05;1.00;;;19.60;81.30;;;;;;5047702;28;20061;-69
2023/03/27 14:12:29;;;;;;;3.65;0.90;;;19.70;81.30;;;;;;5082896;28;20192;-67
2023/03/27 14:15:13;;;;;;;1.73;0.50;;;19.70;81.30;;;;;;5080716;28;20044;-68
2023/03/27 14:17:48;;;;;;;1.85;0.77;;;19.70;81.40;;;;;;5065042;28;20044;-67
2023/03/27 14:20:19;;;;;;;;;;;19.70;81.40;;;;;;5081908;28;20048;-68
2023/03/27 14:22:55;;;;;;;3.33;0.70;;;19.70;81.30;;;;;;5081220;28;19928;-69
2023/03/27 14:25:29;;;;;;;2.20;0.80;;;19.70;81.00;;;;;;5081641;28;20044;-67
2023/03/27 14:27:56;;;;;;;3.53;0.80;;;19.70;80.80;;;;;;5059560;28;21005;-67
2023/03/27 14:30:26;;;;;;;2.70;0.60;;;19.70;80.80;;;;;;5061502;28;20495;-66
2023/03/27 14:32:55;;;;;;;3.72;0.50;;;19.70;80.80;;;;;;5062956;28;20050;-67
2023/03/27 14:35:42;;;;;;;1.92;0.68;;;19.70;80.90;;;;;;5074829;28;20070;-68
2023/03/27 14:38:23;;;;;;;1.58;0.47;;;19.70;80.90;;;;;;5082586;28;20399;-67
2023/03/27 14:40:51;;;;;;;2.92;0.70;;;19.70;80.90;;;;;;5082234;28;20079;-67
2023/03/27 14:43:21;;;;;;;2.00;0.57;;;19.70;80.90;;;;;;5081110;28;20044;-68
2023/03/27 14:45:50;;;;;;;3.17;0.90;;;19.70;81.00;;;;;;5083622;28;20131;-67
2023/03/27 14:48:24;;;;;;;4.45;0.95;;;19.70;81.00;;;;;;5082008;28;20042;-68
2023/03/27 14:50:53;;;;;;;5.45;0.98;;;19.70;81.10;;;;;;5083045;28;20117;-67
2023/03/27 14:53:25;;;;;;;3.63;0.70;;;19.70;81.10;;;;;;5083065;28;20036;-66
2023/03/27 14:55:53;;;;;;;3.85;0.73;;;19.70;81.10;;;;;;5080138;28;20043;-67
2023/03/27 14:58:22;;;;;;;4.30;1.00;;;19.70;81.20;;;;;;5082602;28;20660;-66
2023/03/27 15:00:56;;;;;;;2.50;0.82;;;19.70;81.30;;;;;;5064023;28;20048;-67
2023/03/27 15:03:25;;;;;;;2.90;0.80;;;19.70;81.40;;;;;;5065317;28;20041;-67
2023/03/27 15:06:03;;;;;;;4.00;0.80;;;19.70;81.40;;;;;;5082958;28;20051;-67
2023/03/27 15:08:35;;;;;;;4.93;0.80;;;19.70;81.40;;;;;;5082403;28;20434;-68
2023/03/27 15:11:08;;;;;;;4.35;0.90;;;19.80;81.40;;;;;;5086872;28;20036;-68
2023/03/27 15:13:37;;;;;;;3.85;0.85;;;19.80;81.40;;;;;;5067788;28;20564;-67
2023/03/27 15:16:05;;;;;;;2.67;0.63;;;19.80;81.40;;;;;;5086231;28;20498;-68
2023/03/27 15:18:57;;;;;;;2.75;0.70;;;19.80;81.40;;;;;;5086320;28;20147;-68
2023/03/27 15:21:43;;;;;;;1.67;0.50;;;19.80;81.40;;;;;;5085672;28;20052;-66
2023/03/27 15:24:39;;;;;;;4.22;0.70;;;19.90;81.50;;;;;;5046298;28;20432;-68
2023/03/27 15:27:10;;;;;;;4.55;0.70;;;19.90;81.50;;;;;;5046518;28;20080;-66
2023/03/27 15:29:46;;;;;;;2.85;0.70;;;19.90;81.50;;;;;;5045265;28;20407;-67
2023/03/27 15:32:17;;;;;;;3.78;0.70;;;19.90;81.60;;;;;;5045227;28;20053;-68
2023/03/27 15:34:57;;;;;;;2.80;0.80;;;19.90;81.60;;;;;;5044706;28;20052;-69
2023/03/27 15:37:27;;;;;;;3.25;0.77;;;19.90;81.70;;;;;;5045306;28;20421;-69
2023/03/27 15:40:29;;;;;;;2.10;0.50;;;19.90;81.70;;;;;;5044729;28;20055;-69
2023/03/27 15:43:12;;;;;;;2.45;0.95;;;19.90;81.70;;;;;;5044403;28;20052;-68
2023/03/27 15:45:39;;;;;;;2.25;0.80;;;19.90;81.70;;;;;;5045212;28;20049;-68
2023/03/27 15:48:16;;;;;;;2.10;0.70;;;19.90;81.60;;;;;;5028491;28;20177;-69
2023/03/27 15:51:04;;;;;;;3.05;0.80;;;19.90;81.50;;;;;;5046502;28;20103;-67
2023/03/27 15:53:30;;;;;;;4.13;0.88;;;19.90;81.40;;;;;;5042757;28;20063;-68
2023/03/27 15:55:57;;;;;;;4.25;0.73;;;19.90;81.50;;;;;;5044228;28;20120;-68
2023/03/27 15:58:25;;;;;;;2.58;0.88;;;19.90;81.20;;;;;;5044478;28;20106;-68
2023/03/27 16:01:05;;;;;;;4.25;0.88;;;19.90;81.10;;;;;;5042912;28;20045;-68
2023/03/27 16:03:33;;;;;;;2.75;0.52;;;19.90;81.00;;;;;;5043780;28;20053;-68
2023/03/27 16:06:01;;;;;;;2.00;0.40;;;20.00;81.00;;;;;;5043348;28;20048;-68
2023/03/27 16:08:36;;;;;;;2.53;0.88;;;20.10;80.80;;;;;;5042434;28;20337;-68
2023/03/27 16:11:03;;;;;;;3.55;0.75;;;20.20;80.80;;;;;;5042942;28;20240;-68
2023/03/27 16:13:54;;;;;;;3.22;0.75;;;20.30;80.70;;;;;;5044401;28;20068;-68
2023/03/27 16:16:26;;;;;;;2.03;0.70;;;20.30;80.50;;;;;;5041451;28;20037;-68
2023/03/27 16:18:53;;;;;;;2.97;0.70;;;20.40;80.50;;;;;;5045259;28;20048;-67
2023/03/27 16:21:24;;;;;;;1.88;0.70;;;20.40;80.40;;;;;;5044479;28;20060;-68
2023/03/27 16:23:50;;;;;;;2.03;0.60;;;20.40;80.40;;;;;;5082644;28;20059;-68
2023/03/27 16:26:21;;;;;;;3.95;0.63;;;20.30;80.40;;;;;;5082067;28;20106;-68
2023/03/27 16:28:47;;;;;;;2.95;0.60;;;20.30;80.40;;;;;;5065900;28;20558;-69
2023/03/27 16:31:17;;;;;;;1.20;0.50;;;20.30;80.50;;;;;;5066817;28;20044;-69
2023/03/27 16:33:44;;;;;;;2.38;0.57;;;20.30;80.50;;;;;;5084789;28;20040;-68
2023/03/27 16:36:20;;;;;;;1.83;0.60;;;20.40;80.50;;;;;;5084037;28;20375;-69
2023/03/27 16:38:46;;;;;;;3.13;0.82;;;20.40;80.40;;;;;;5064072;28;20055;-69
2023/03/27 16:41:16;;;;;;;1.38;0.50;;;20.40;80.40;;;;;;5084955;28;20032;-68
2023/03/27 16:43:43;;;;;;;1.95;0.50;;;20.40;80.40;;;;;;5083340;28;20063;-69
2023/03/27 16:46:22;;;;;;;2.05;0.60;;;20.50;80.40;;;;;;5084985;28;20050;-69
2023/03/27 16:48:50;;;;;;;1.88;0.50;;;20.60;80.40;;;;;;5067295;28;20048;-68
2023/03/27 16:51:16;;;;;;;2.08;0.57;;;20.60;80.50;;;;;;5065820;28;20551;-68
2023/03/27 16:53:41;;;;;;;2.53;0.70;;;20.60;80.60;;;;;;5084168;28;20058;-67
2023/03/27 16:56:08;;;;;;;3.00;0.70;;;20.70;80.80;;;;;;5049349;28;20435;-68
2023/03/27 16:58:34;;;;;;;3.88;0.60;;;20.50;80.80;;;;;;5082832;28;20625;-68
2023/03/27 17:00:59;;;;;;;2.78;0.70;;;20.50;81.00;;;;;;5083568;28;20219;-68
2023/03/27 17:03:25;;;;;;;2.15;0.70;;;20.50;81.00;;;;;;5084250;28;20069;-68
2023/03/27 17:05:51;;;;;;;2.22;0.50;;;20.50;81.10;;;;;;5085595;28;20475;-68
2023/03/27 17:08:17;;;;;;;1.92;0.70;;;20.50;81.10;;;;;;5083017;28;20048;-67
2023/03/27 17:10:43;;;;;;;2.20;0.60;;;20.50;81.10;;;;;;5084293;28;20063;-68
2023/03/27 17:13:09;;;;;;;2.17;0.57;;;20.50;81.00;;;;;;5083822;28;20040;-68
2023/03/27 17:15:39;;;;;;;2.40;0.63;;;20.60;81.00;;;;;;5083986;28;20036;-68
2023/03/27 17:18:05;;;;;;;2.78;0.50;;;20.60;80.90;;;;;;5066147;28;20044;-68
2023/03/27 17:20:31;;;;;;;2.42;0.68;;;20.60;80.90;;;;;;5084481;28;20051;-68
2023/03/27 17:22:56;;;;;;;2.38;0.60;;;20.60;80.90;;;;;;5063025;28;20499;-67
2023/03/27 17:25:22;;;;;;;1.48;0.40;;;20.60;80.90;;;;;;5063624;28;20048;-68
2023/03/27 17:27:49;;;;;;;1.90;0.50;;;20.60;81.00;;;;;;5048901;28;20076;-67
2023/03/27 17:30:15;;;;;;;3.58;0.68;;;20.60;81.00;;;;;;5043770;28;20095;-68
2023/03/27 17:32:41;;;;;;;3.83;0.70;;;20.60;81.10;;;;;;5043694;28;20049;-68
2023/03/27 17:35:07;;;;;;;2.17;0.57;;;20.60;81.20;;;;;;5044709;28;20159;-67
2023/03/27 17:37:34;;;;;;;1.65;0.63;;;20.60;81.10;;;;;;5044005;28;20116;-67
2023/03/27 17:40:03;;;;;;;2.13;0.60;;;20.60;81.10;;;;;;5043390;28;20049;-68
2023/03/27 17:42:29;;;;;;;4.20;0.75;;;20.60;81.10;;;;;;5039098;28;20040;-66
2023/03/27 17:44:54;;;;;;;2.15;0.70;;;20.60;81.20;;;;;;5042124;28;20045;-67
2023/03/27 17:47:20;;;;;;;3.05;0.70;;;20.60;81.10;;;;;;5043692;28;20045;-65
2023/03/27 17:49:46;;;;;;;2.10;0.57;;;20.60;81.10;;;;;;5043837;28;20048;-67
2023/03/27 17:52:12;;;;;;;2.65;0.80;;;20.70;81.10;;;;;;5043319;28;20155;-68
2023/03/27 17:54:38;;;;;;;2.58;0.50;;;20.70;81.10;;;;;;5043849;28;20079;-66
2023/03/27 17:57:05;;;;;;;2.50;0.50;;;20.60;81.10;;;;;;5039936;28;20045;-67
2023/03/27 17:59:30;;;;;;;4.72;0.80;;;20.60;81.10;;;;;;5025216;28;20047;-67
2023/03/27 18:01:57;;;;;;;3.85;0.60;;;20.60;81.10;;;;;;5036774;28;20056;-66
2023/03/27 18:04:24;;;;;;;3.25;0.80;;;20.60;81.20;;;;;;5038454;28;20045;-67
2023/03/27 18:06:50;;;;;;;2.88;0.80;;;20.60;81.20;;;;;;5037700;28;20047;-67
2023/03/27 18:09:16;;;;;;;2.70;0.63;;;20.60;81.20;;;;;;5031497;28;20084;-68
2023/03/27 18:11:42;;;;;;;5.93;0.80;;;20.60;81.20;;;;;;5037053;28;20111;-67
2023/03/27 18:14:07;;;;;;;2.65;0.70;;;20.60;81.10;;;;;;5037590;28;20057;-66
2023/03/27 18:16:33;;;;;;;3.78;0.63;;;20.70;81.20;;;;;;5037341;28;20123;-65
2023/03/27 18:18:59;;;;;;;1.35;0.50;;;20.60;81.10;;;;;;5037238;28;20065;-67
2023/03/27 18:21:24;;;;;;;2.20;0.50;;;20.60;81.20;;;;;;5033523;28;20099;-68
2023/03/27 18:23:50;;;;;;;2.05;0.70;;;20.60;81.10;;;;;;5075081;28;20097;-67
2023/03/27 18:26:17;;;;;;;2.60;0.60;;;20.60;81.10;;;;;;5077401;28;20105;-67
2023/03/27 18:28:42;;;;;;;1.67;0.70;;;20.60;81.10;;;;;;5076230;28;20117;-67
2023/03/27 18:31:14;;;;;;;2.85;0.70;;;20.60;81.10;;;;;;5078038;28;20245;-66
2023/03/27 18:33:40;;;;;;;2.10;0.60;;;20.70;81.20;;;;;;5077578;28;20084;-65
2023/03/27 18:36:09;;;;;;;2.10;0.70;;;20.70;81.10;;;;;;5076829;28;20074;-66
2023/03/27 18:38:35;;;;;;;2.25;0.73;;;20.70;81.10;;;;;;5059222;28;20062;-65
2023/03/27 18:41:01;;;;;;;2.47;0.50;;;20.60;81.10;;;;;;5043630;28;20413;-65
2023/03/27 18:43:27;;;;;;;4.15;0.68;;;20.60;81.10;;;;;;5059030;28;20611;-67
2023/03/27 18:45:55;;;;;;;2.17;0.70;;;20.60;81.10;;;;;;5081141;28;20058;-65
2023/03/27 18:48:21;;;;;;;3.63;0.77;;;20.70;81.20;;;;;;5081225;28;20076;-66
2023/03/27 18:51:01;;;;;;;2.25;0.70;;;20.60;81.20;;;;;;5082344;28;20230;-65
2023/03/27 18:53:27;;;;;;;2.08;0.50;;;20.60;81.20;;;;;;5082381;28;20070;-66
2023/03/27 18:55:54;;;;;;;2.30;0.80;;;20.60;81.30;;;;;;5083033;28;20536;-67
2023/03/27 18:58:23;;;;;;;2.10;0.60;;;20.60;81.30;;;;;;5082616;28;20106;-67
2023/03/27 19:00:49;;;;;;;2.05;0.80;;;20.60;81.30;;;;;;5081524;28;20131;-66
2023/03/27 19:03:17;;;;;;;2.50;0.50;;;20.60;81.30;;;;;;5083109;28;20043;-67
2023/03/27 19:05:46;;;;;;;3.80;0.88;;;20.60;81.30;;;;;;5064225;28;20052;-69
2023/03/27 19:08:13;;;;;;;2.70;0.70;;;20.50;81.30;;;;;;5082797;28;20394;-67
2023/03/27 19:10:40;;;;;;;2.15;0.68;;;20.50;81.30;;;;;;5083073;28;20048;-67
2023/03/27 19:13:05;;;;;;;2.35;0.68;;;20.50;81.40;;;;;;5082545;28;20035;-67
2023/03/27 19:15:31;;;;;;;2.17;0.70;;;20.50;81.40;;;;;;5063621;28;20051;-68
2023/03/27 19:17:57;;;;;;;1.90;0.52;;;20.50;81.50;;;;;;5064579;28;20621;-67
2023/03/27 19:20:23;;;;;;;1.77;0.47;;;20.40;81.50;;;;;;5082712;28;20161;-66
2023/03/27 19:22:49;;;;;;;2.80;0.80;;;20.40;81.50;;;;;;5081944;28;20446;-67
2023/03/27 19:25:15;;;;;;;2.60;0.70;;;20.40;81.50;;;;;;5063266;28;20048;-68
2023/03/27 19:27:42;;;;;;;2.75;0.80;;;20.40;81.40;;;;;;5082202;28;20040;-66
2023/03/27 19:30:10;;;;;;;2.72;0.75;;;20.40;81.40;;;;;;5082658;28;20501;-67
2023/03/27 19:32:36;;;;;;;2.05;0.80;;;20.40;81.40;;;;;;5080160;28;20081;-67
2023/03/27 19:35:02;;;;;;;2.33;0.60;;;20.40;81.40;;;;;;5081926;28;20054;-68
2023/03/27 19:37:28;;;;;;;2.65;0.60;;;20.40;81.40;;;;;;5082338;28;20044;-68
2023/03/27 19:39:54;;;;;;;3.38;0.80;;;20.40;81.50;;;;;;5081895;28;20097;-66
2023/03/27 19:42:20;;;;;;;3.08;0.95;;;20.40;81.50;;;;;;5081026;28;20046;-67
2023/03/27 19:44:46;;;;;;;2.60;0.80;;;20.40;81.50;;;;;;5082098;28;20040;-67
2023/03/27 19:47:11;;;;;;;2.40;0.77;;;20.40;81.50;;;;;;5063746;28;20048;-68
2023/03/27 19:49:37;;;;;;;2.35;0.70;;;20.40;81.60;;;;;;5081559;28;20065;-67
2023/03/27 19:52:03;;;;;;;2.83;0.80;;;20.30;81.50;;;;;;5081334;28;20550;-68
2023/03/27 19:54:29;;;;;;;2.65;0.80;;;20.30;81.50;;;;;;5081393;28;20122;-68
2023/03/27 19:56:54;;;;;;;2.08;0.80;;;20.30;81.50;;;;;;5081102;28;20127;-67
2023/03/27 19:59:20;;;;;;;2.15;0.75;;;20.30;81.50;;;;;;5081988;28;20052;-68
2023/03/27 20:01:46;;;;;;;2.30;0.82;;;20.30;81.40;;;;;;5079558;28;20043;-68
2023/03/27 20:04:12;;;;;;;1.95;0.93;;;20.30;81.50;;;;;;5064397;28;20044;-67
2023/03/27 20:06:38;;;;;;;3.10;0.90;;;20.30;81.50;;;;;;5081463;28;20047;-67
2023/03/27 20:09:05;;;;;;;1.73;0.60;;;20.30;81.50;;;;;;5081551;28;20051;-67
2023/03/27 20:11:31;;;;;;;2.83;0.80;;;20.30;81.50;;;;;;5080568;28;20078;-67
2023/03/27 20:13:57;;;;;;;2.55;0.68;;;20.30;81.50;;;;;;5080470;28;20056;-66
2023/03/27 20:16:26;;;;;;;2.35;0.60;;;20.30;81.50;;;;;;5063336;28;20147;-67
2023/03/27 20:19:03;;;;;;;2.70;0.70;;;20.20;81.40;;;;;;5080434;28;20089;-67
2023/03/27 20:21:37;;;;;;;2.63;0.90;;;20.30;81.50;;;;;;5081491;28;20067;-67
2023/03/27 20:24:04;;;;;;;2.70;0.70;;;20.30;82.10;;;;;;5081527;28;20224;-67
2023/03/27 20:26:37;;;;;;;2.70;0.85;;;20.20;81.40;;;;;;5080775;28;20453;-68
2023/03/27 20:29:13;;;;;;;2.05;0.70;;;20.20;81.40;;;;;;5081554;28;20059;-67
2023/03/27 20:31:39;;;;;;;3.28;0.73;;;20.20;81.40;;;;;;5080982;28;20043;-67
2023/03/27 20:34:07;;;;;;;2.42;0.68;;;20.20;81.40;;;;;;5081301;28;20510;-67
2023/03/27 20:36:33;;;;;;;2.45;0.73;;;20.20;81.40;;;;;;5081425;28;20132;-67
2023/03/27 20:39:05;;;;;;;2.05;0.80;;;20.20;81.40;;;;;;5062858;28;20054;-67
2023/03/27 20:41:31;;;;;;;2.40;0.73;;;20.20;81.40;;;;;;5080509;28;20340;-66
2023/03/27 20:43:57;;;;;;;2.95;0.80;;;20.20;81.40;;;;;;5062573;28;20554;-66
2023/03/27 20:46:29;;;;;;;2.53;0.80;;;20.20;81.40;;;;;;5080679;28;20127;-67
2023/03/27 20:48:55;;;;;;;2.25;0.50;;;20.20;81.40;;;;;;5080295;28;20123;-66
2023/03/27 20:51:22;;;;;;;2.72;0.70;;;20.20;81.40;;;;;;5080932;28;20141;-67
2023/03/27 20:53:56;;;;;;;2.38;0.82;;;20.10;81.40;;;;;;5062102;28;20036;-66
2023/03/27 20:56:23;;;;;;;2.50;0.88;;;20.20;81.40;;;;;;5080428;28;20055;-67
2023/03/27 20:58:50;;;;;;;2.25;0.80;;;20.20;81.40;;;;;;5061412;28;20055;-66
2023/03/27 21:01:18;;;;;;;2.97;0.90;;;20.20;81.40;;;;;;5079839;28;20048;-67
2023/03/27 21:03:45;;;;;;;2.08;0.70;;;20.10;81.40;;;;;;5080667;28;20060;-69
2023/03/27 21:06:13;;;;;;;2.33;0.80;;;20.10;81.40;;;;;;5080106;28;20059;-66
2023/03/27 21:08:40;;;;;;;2.67;0.77;;;20.20;81.40;;;;;;5080742;28;20544;-67
2023/03/27 21:11:06;;;;;;;2.22;0.88;;;20.10;81.40;;;;;;5080051;28;20059;-67
2023/03/27 21:13:32;;;;;;;1.83;0.75;;;20.10;81.30;;;;;;5078791;28;20036;-67
2023/03/27 21:15:59;;;;;;;2.42;0.65;;;20.10;81.40;;;;;;5079983;28;20105;-67
2023/03/27 21:18:25;;;;;;;1.83;0.55;;;20.10;81.30;;;;;;5062346;28;20056;-67
2023/03/27 21:20:51;;;;;;;2.80;0.63;;;20.10;81.40;;;;;;5079660;28;20060;-67
2023/03/27 21:23:17;;;;;;;4.07;0.90;;;20.10;81.30;;;;;;5079125;28;20056;-67
2023/03/27 21:25:43;;;;;;;2.67;0.75;;;20.10;81.30;;;;;;5080558;28;20422;-67
2023/03/27 21:28:09;;;;;;;2.45;0.77;;;20.00;81.30;;;;;;5080098;28;20044;-67
2023/03/27 21:30:38;;;;;;;2.22;0.70;;;20.10;81.30;;;;;;5079271;28;20043;-67
2023/03/27 21:33:05;;;;;;;2.15;0.70;;;20.00;81.30;;;;;;5080070;28;20052;-66
2023/03/27 21:35:32;;;;;;;1.67;0.70;;;20.00;81.40;;;;;;5061665;28;20151;-67
2023/03/27 21:37:57;;;;;;;2.55;0.80;;;20.00;81.40;;;;;;5061688;28;20060;-67
2023/03/27 21:40:23;;;;;;;2.88;0.90;;;20.00;81.50;;;;;;5079186;28;20036;-67
2023/03/27 21:42:49;;;;;;;1.92;0.70;;;19.90;81.40;;;;;;5078499;28;20329;-67
2023/03/27 21:45:14;;;;;;;2.22;0.70;;;19.80;81.40;;;;;;5079817;28;20051;-68
2023/03/27 21:47:40;;;;;;;2.08;0.55;;;19.90;81.50;;;;;;5079917;28;20411;-66
2023/03/27 21:50:06;;;;;;;2.03;0.80;;;19.80;81.50;;;;;;5079286;28;20532;-67
2023/03/27 21:52:32;;;;;;;3.97;0.88;;;19.80;81.50;;;;;;5078980;28;20040;-67
2023/03/27 21:54:58;;;;;;;1.83;0.60;;;19.80;81.50;;;;;;5080216;28;20173;-67
2023/03/27 21:57:23;;;;;;;2.45;0.73;;;19.80;81.50;;;;;;5077794;28;20051;-66
2023/03/27 21:59:49;;;;;;;2.78;0.77;;;19.70;81.50;;;;;;5079376;28;20095;-65
2023/03/27 22:02:15;;;;;;;3.50;1.08;;;19.70;81.50;;;;;;5078970;28;20239;-66
2023/03/27 22:04:40;;;;;;;3.55;0.70;;;19.70;81.60;;;;;;5080730;28;20040;-67
2023/03/27 22:07:06;;;;;;;3.55;0.90;;;19.70;81.60;;;;;;5062824;28;20029;-67
2023/03/27 22:09:32;;;;;;;4.47;1.05;;;19.70;81.60;;;;;;5080836;28;20043;-65
2023/03/27 22:11:58;;;;;;;4.97;1.13;;;19.70;81.70;;;;;;5061028;28;20047;-65
2023/03/27 22:14:23;;;;;;;7.68;1.30;;;19.70;81.50;;;;;;5079666;28;20046;-64
2023/03/27 22:16:49;;;;;;;4.82;1.40;;;19.70;81.40;;;;;;5078537;28;20040;-65
2023/03/27 22:19:15;;;;;;;4.13;1.10;;;19.70;81.20;;;;;;5078993;28;20040;-66
2023/03/27 22:21:40;;;;;;;4.47;1.10;;;19.60;80.80;;;;;;5079717;28;20122;-65
2023/03/27 22:24:06;;;;;;;5.90;1.30;;;19.60;80.90;;;;;;5079979;28;20040;-65
2023/03/27 22:26:35;;;;;;;3.83;1.27;;;19.60;81.10;;;;;;5079829;28;20597;-64
2023/03/27 22:29:02;;;;;;;2.97;1.00;;;19.60;81.10;;;;;;5080473;28;20074;-65
2023/03/27 22:31:28;;;;;;;6.13;1.00;;;19.60;81.10;;;;;;5080749;28;20036;-65
2023/03/27 22:33:54;;;;;;;3.25;1.13;;;19.60;81.10;;;;;;5079419;28;20067;-65
2023/03/27 22:36:20;;;;;;;5.97;1.10;;;19.60;81.10;;;;;;5080595;28;20040;-65
2023/03/27 22:38:47;;;;;;;4.40;0.98;;;19.60;81.10;;;;;;5080754;28;20157;-65
2023/03/27 22:41:13;;;;;;;3.50;1.10;;;19.50;81.10;;;;;;5079950;28;20464;-67
2023/03/27 22:43:39;;;;;;;4.57;1.17;;;19.50;81.10;;;;;;5080082;28;20376;-66
2023/03/27 22:46:17;;;;;;;3.45;1.10;;;19.50;81.00;;;;;;5081162;28;20459;-65
2023/03/27 22:48:43;;;;;;;6.03;1.10;;;19.50;81.10;;;;;;5079441;28;20047;-66
2023/03/27 22:51:11;;;;;;;3.50;0.75;;;19.50;81.10;;;;;;5044788;28;20052;-65
2023/03/27 22:53:37;;;;;;;2.58;1.13;;;19.50;81.10;;;;;;5061322;28;20052;-65
2023/03/27 22:56:03;;;;;;;3.00;1.00;;;19.40;81.00;;;;;;5061160;28;20044;-65
2023/03/27 22:58:30;;;;;;;3.05;1.00;;;19.40;81.00;;;;;;5079597;28;20044;-65
2023/03/27 23:00:56;;;;;;;4.38;0.98;;;19.40;81.00;;;;;;5062620;28;20048;-65
2023/03/27 23:03:23;;;;;;;3.38;1.30;;;19.40;81.00;;;;;;5081035;28;20418;-65
2023/03/27 23:05:50;;;;;;;3.80;0.82;;;19.40;81.10;;;;;;5080393;28;20098;-65
2023/03/27 23:08:17;;;;;;;4.97;1.33;;;19.40;81.10;;;;;;5081256;28;20198;-64
2023/03/27 23:10:43;;;;;;;2.63;1.00;;;19.30;81.10;;;;;;5081423;28;20036;-64
2023/03/27 23:13:08;;;;;;;4.15;1.10;;;19.30;81.10;;;;;;5079348;28;20230;-66
2023/03/27 23:15:35;;;;;;;4.03;1.23;;;19.30;81.10;;;;;;5081064;28;20044;-64
2023/03/27 23:18:01;;;;;;;3.75;1.02;;;19.30;81.10;;;;;;5080682;28;20256;-64
2023/03/27 23:20:28;;;;;;;3.53;1.00;;;19.30;81.10;;;;;;5080863;28;20344;-65
2023/03/27 23:22:53;;;;;;;3.00;1.10;;;19.30;81.10;;;;;;5079854;28;20067;-65
2023/03/27 23:25:19;;;;;;;3.58;1.10;;;19.30;81.10;;;;;;5080679;28;20036;-64
2023/03/27 23:27:45;;;;;;;4.30;1.10;;;19.30;81.10;;;;;;5080275;28;20032;-65
2023/03/27 23:30:11;;;;;;;4.00;1.00;;;19.20;81.00;;;;;;5080885;28;20123;-65
2023/03/27 23:32:37;;;;;;;3.28;1.10;;;19.30;81.10;;;;;;5084458;28;20075;-64
2023/03/27 23:35:04;;;;;;;6.38;1.40;;;19.20;81.00;;;;;;5084180;28;20129;-65